Flight Track Log - Related Links

Times and Time Zones

All times are in EDT time to prevent confusion due to time zone crossing. See the JBU56 flight status page for this flight to view local times or setup timezone preferences in your user account.

Time Position Orientation Groundspeed Altitude Reporting Facility
EDT Latitude Longitude Course Direction KTS MPH feet Rate Location/Type
Tue 09:46:04 AM 40.5833 -73.8000 14° North 198 228 2,200  Level New York TRACON
Tue 09:47:04 AM 40.5833 -73.7333 90° East 259 298 4,700 2,750 Climbing New York TRACON
Tue 09:48:00 AM 40.9719 -73.5891 21° North  Level FlightAware Approximate
Tue 09:48:04 AM 40.6500 -73.6667 37° Northeast 293 337 7,700  Level New York TRACON
Tue 09:48:58 AM 40.7000 -73.6000 45° Northeast 301 346 10,800 2,421 Climbing New York TRACON
Tue 09:49:00 AM 41.0591 -73.5385 27° Northeast  Level FlightAware Approximate
Tue 09:49:58 AM 40.8000 -73.5667 14° North 345 397 12,300  Level New York TRACON
Tue 09:50:00 AM 41.1443 -73.4816 27° Northeast  Level FlightAware Approximate
Tue 09:51:00 AM 41.2294 -73.4402 14° North  Level FlightAware Approximate
Tue 09:51:04 AM 40.9000 -73.5333 14° North 370 426 15,200  Level New York TRACON
Tue 09:52:04 AM 41.0000 -73.5000 14° North 402 463 17,000 1,446 Climbing New York TRACON
Tue 09:54:19 AM 41.2522 -73.4036 16° North 408 470 19,900 1,538 Climbing Boston Center
Tue 09:55:19 AM 41.3650 -73.3583 17° North 414 476 22,000 1,550 Climbing Boston Center
Tue 09:56:19 AM 41.4822 -73.3075 18° North 425 489 23,000 500 Climbing Boston Center
Tue 09:57:19 AM 41.5636 -73.2892 10° North 425 489 23,000  Level Boston Center
Tue 09:58:19 AM 41.7031 -73.2992 357° North 414 476 23,000  Level Boston Center
Tue 09:59:19 AM 41.8219 -73.3036 358° North 420 483 23,000  Level Boston Center
Tue 10:00:19 AM 41.9386 -73.3108 357° North 420 483 23,000  Level Boston Center
Tue 10:01:19 AM 42.0594 -73.3125 359° North 420 483 23,000  Level Boston Center
Tue 10:02:19 AM 42.1739 -73.3169 358° North 420 483 23,000  Level Boston Center
Tue 10:03:19 AM 42.2947 -73.3242 357° North 420 483 23,000  Level Boston Center
Tue 10:04:19 AM 42.4261 -73.3233 360° North 420 483 23,000  Level Boston Center
Tue 10:05:19 AM 42.5472 -73.3108 North 420 483 23,000  Level Boston Center
Tue 10:06:19 AM 42.6556 -73.3067 North 420 483 23,000 -350 Level Boston Center
Tue 10:07:19 AM 42.7744 -73.2972 North 420 483 22,300 -1,000 Descending Boston Center
Tue 10:08:19 AM 42.8911 -73.2875 North 420 483 21,000 -650 Descending Boston Center
Tue 10:09:19 AM 43.0058 -73.2806 North 420 483 21,000  Level Boston Center
Tue 10:10:19 AM 43.1289 -73.2708 North 414 476 21,000  Level Boston Center
Tue 10:11:31 AM 43.2414 -73.2581 North 408 470 21,000  Level Boston Center
Tue 10:12:31 AM 43.3769 -73.2456 North 403 464 21,000 -300 Level Boston Center
Tue 10:13:31 AM 43.4750 -73.2356 North 396 456 20,400 -1,350 Descending Boston Center
Tue 10:14:31 AM 43.5856 -73.2283 North 391 450 18,300 -2,250 Descending Boston Center
Tue 10:15:31 AM 43.7022 -73.2211 North 386 444 15,900 -2,100 Descending Boston Center
Tue 10:16:31 AM 43.7983 -73.2108 North 360 414 14,100 -1,800 Descending Boston Center
Tue 10:17:31 AM 43.8942 -73.2036 North 344 396 12,300 -1,550 Descending Boston Center
Tue 10:18:31 AM 43.9858 -73.1961 North 331 381 11,000 -650 Descending Boston Center
Tue 10:19:31 AM 44.0694 -73.1797 North 309 356 11,000 -950 Level Boston Center
Tue 10:20:31 AM 44.1508 -73.1344 22° Northeast 302 348 9,100 -1,750 Descending Boston Center
Tue 10:21:31 AM 44.2261 -73.0919 22° Northeast 297 342 7,500 -1,600 Descending Boston Center
Tue 10:22:31 AM 44.2950 -73.0550 21° North 277 319 5,900 -1,600 Descending Boston Center
Tue 10:23:31 AM 44.3597 -73.0267 17° North 253 291 4,300 -1,600 Descending Boston Center
Tue 10:24:31 AM 44.4033 -73.0503 339° North 200 230 2,700 -1,450 Descending Boston Center
Tue 10:25:31 AM 44.4344 -73.0942 315° West 165 190 1,400 -1,050 Descending Boston Center
Tue 10:26:31 AM 44.4592 -73.1353 310° West 144 166 600 -500 Descending Boston Center
Tue 10:27:31 AM 44.4800 -73.1644 315° West 121 139 400 -200 Descending Boston Center

Login

Don't have an account? Register now (free) for customized features, flight alerts, and more!